sensor_id;sensor_type;location;lat;lon;timestamp;P1;durP1;ratioP1;P2;durP2;ratioP2
59159;SDS011;44941;45.058;20.076;2022-11-20T00:01:07;8.57;;;5.32;;
59159;SDS011;44941;45.058;20.076;2022-11-20T00:03:33;8.77;;;5.32;;
59159;SDS011;44941;45.058;20.076;2022-11-20T00:06:04;9.93;;;5.65;;
59159;SDS011;44941;45.058;20.076;2022-11-20T00:08:30;12.70;;;5.65;;
59159;SDS011;44941;45.058;20.076;2022-11-20T00:10:56;11.75;;;5.97;;
59159;SDS011;44941;45.058;20.076;2022-11-20T00:13:22;10.00;;;6.45;;
59159;SDS011;44941;45.058;20.076;2022-11-20T00:15:50;8.60;;;5.35;;
59159;SDS011;44941;45.058;20.076;2022-11-20T00:18:22;10.57;;;6.15;;
59159;SDS011;44941;45.058;20.076;2022-11-20T00:20:48;10.15;;;6.15;;
59159;SDS011;44941;45.058;20.076;2022-11-20T00:23:14;11.98;;;6.72;;
59159;SDS011;44941;45.058;20.076;2022-11-20T00:25:40;10.43;;;6.50;;
59159;SDS011;44941;45.058;20.076;2022-11-20T00:28:06;11.27;;;6.97;;
59159;SDS011;44941;45.058;20.076;2022-11-20T00:30:32;13.15;;;6.95;;
59159;SDS011;44941;45.058;20.076;2022-11-20T00:32:58;10.23;;;6.38;;
59159;SDS011;44941;45.058;20.076;2022-11-20T00:35:24;11.02;;;6.57;;
59159;SDS011;44941;45.058;20.076;2022-11-20T00:37:50;12.25;;;7.03;;
59159;SDS011;44941;45.058;20.076;2022-11-20T00:40:16;11.40;;;6.18;;
59159;SDS011;44941;45.058;20.076;2022-11-20T00:42:42;10.38;;;6.28;;
59159;SDS011;44941;45.058;20.076;2022-11-20T00:45:08;12.18;;;7.15;;
59159;SDS011;44941;45.058;20.076;2022-11-20T00:47:34;10.75;;;6.57;;
59159;SDS011;44941;45.058;20.076;2022-11-20T00:50:00;10.05;;;6.80;;
59159;SDS011;44941;45.058;20.076;2022-11-20T00:52:26;13.32;;;7.07;;
59159;SDS011;44941;45.058;20.076;2022-11-20T00:54:53;12.13;;;6.82;;
59159;SDS011;44941;45.058;20.076;2022-11-20T00:57:19;11.63;;;7.18;;
59159;SDS011;44941;45.058;20.076;2022-11-20T00:59:45;11.40;;;7.53;;
59159;SDS011;44941;45.058;20.076;2022-11-20T01:02:11;13.55;;;8.02;;
59159;SDS011;44941;45.058;20.076;2022-11-20T01:04:37;11.77;;;7.40;;
59159;SDS011;44941;45.058;20.076;2022-11-20T01:07:03;11.55;;;6.43;;
59159;SDS011;44941;45.058;20.076;2022-11-20T01:09:29;13.45;;;6.68;;
59159;SDS011;44941;45.058;20.076;2022-11-20T01:11:55;14.40;;;7.50;;
59159;SDS011;44941;45.058;20.076;2022-11-20T01:14:21;12.55;;;7.35;;
59159;SDS011;44941;45.058;20.076;2022-11-20T01:16:48;13.27;;;7.50;;
59159;SDS011;44941;45.058;20.076;2022-11-20T01:19:16;14.43;;;7.05;;
59159;SDS011;44941;45.058;20.076;2022-11-20T01:21:43;14.77;;;7.75;;
59159;SDS011;44941;45.058;20.076;2022-11-20T01:24:14;11.43;;;7.20;;
59159;SDS011;44941;45.058;20.076;2022-11-20T01:26:41;16.90;;;7.72;;
59159;SDS011;44941;45.058;20.076;2022-11-20T01:29:10;14.25;;;8.45;;
59159;SDS011;44941;45.058;20.076;2022-11-20T01:31:38;11.00;;;7.40;;
59159;SDS011;44941;45.058;20.076;2022-11-20T01:34:15;13.32;;;8.25;;
59159;SDS011;44941;45.058;20.076;2022-11-20T01:36:41;13.07;;;7.32;;
59159;SDS011;44941;45.058;20.076;2022-11-20T01:39:15;12.80;;;8.13;;
59159;SDS011;44941;45.058;20.076;2022-11-20T01:41:42;13.23;;;8.13;;
59159;SDS011;44941;45.058;20.076;2022-11-20T01:47:33;14.25;;;7.90;;
59159;SDS011;44941;45.058;20.076;2022-11-20T01:50:33;12.80;;;8.38;;
59159;SDS011;44941;45.058;20.076;2022-11-20T01:52:57;18.65;;;8.50;;
59159;SDS011;44941;45.058;20.076;2022-11-20T01:55:27;14.00;;;8.00;;
59159;SDS011;44941;45.058;20.076;2022-11-20T01:57:55;12.98;;;7.97;;
59159;SDS011;44941;45.058;20.076;2022-11-20T02:00:22;15.02;;;9.63;;
59159;SDS011;44941;45.058;20.076;2022-11-20T02:02:50;15.00;;;8.82;;
59159;SDS011;44941;45.058;20.076;2022-11-20T02:05:35;15.07;;;9.23;;
59159;SDS011;44941;45.058;20.076;2022-11-20T02:08:03;14.57;;;9.07;;
59159;SDS011;44941;45.058;20.076;2022-11-20T02:10:30;18.20;;;9.53;;
59159;SDS011;44941;45.058;20.076;2022-11-20T02:12:57;15.60;;;9.35;;
59159;SDS011;44941;45.058;20.076;2022-11-20T02:15:41;16.85;;;9.80;;
59159;SDS011;44941;45.058;20.076;2022-11-20T02:18:08;15.60;;;9.65;;
59159;SDS011;44941;45.058;20.076;2022-11-20T02:20:35;17.65;;;9.93;;
59159;SDS011;44941;45.058;20.076;2022-11-20T02:25:33;19.90;;;10.73;;
59159;SDS011;44941;45.058;20.076;2022-11-20T02:28:00;17.93;;;10.83;;
59159;SDS011;44941;45.058;20.076;2022-11-20T02:30:27;18.98;;;10.15;;
59159;SDS011;44941;45.058;20.076;2022-11-20T02:32:53;17.60;;;11.23;;
59159;SDS011;44941;45.058;20.076;2022-11-20T02:37:48;16.60;;;10.82;;
59159;SDS011;44941;45.058;20.076;2022-11-20T02:40:15;16.38;;;10.25;;
59159;SDS011;44941;45.058;20.076;2022-11-20T02:42:41;19.63;;;11.13;;
59159;SDS011;44941;45.058;20.076;2022-11-20T02:45:08;17.70;;;10.52;;
59159;SDS011;44941;45.058;20.076;2022-11-20T02:47:34;17.73;;;10.65;;
59159;SDS011;44941;45.058;20.076;2022-11-20T02:50:00;17.80;;;10.23;;
59159;SDS011;44941;45.058;20.076;2022-11-20T02:52:32;17.77;;;10.65;;
59159;SDS011;44941;45.058;20.076;2022-11-20T02:54:58;17.60;;;10.65;;
59159;SDS011;44941;45.058;20.076;2022-11-20T02:57:25;16.10;;;11.02;;
59159;SDS011;44941;45.058;20.076;2022-11-20T02:59:51;16.00;;;10.30;;
59159;SDS011;44941;45.058;20.076;2022-11-20T03:02:17;21.00;;;12.00;;
59159;SDS011;44941;45.058;20.076;2022-11-20T03:04:43;16.73;;;10.75;;
59159;SDS011;44941;45.058;20.076;2022-11-20T03:07:10;16.48;;;10.77;;
59159;SDS011;44941;45.058;20.076;2022-11-20T03:09:36;17.70;;;10.75;;
59159;SDS011;44941;45.058;20.076;2022-11-20T03:12:02;16.77;;;10.10;;
59159;SDS011;44941;45.058;20.076;2022-11-20T03:14:28;16.10;;;10.45;;
59159;SDS011;44941;45.058;20.076;2022-11-20T03:16:55;17.13;;;10.07;;
59159;SDS011;44941;45.058;20.076;2022-11-20T03:19:21;16.55;;;9.90;;
59159;SDS011;44941;45.058;20.076;2022-11-20T03:21:50;16.92;;;10.18;;
59159;SDS011;44941;45.058;20.076;2022-11-20T03:24:16;20.08;;;10.75;;
59159;SDS011;44941;45.058;20.076;2022-11-20T03:26:42;16.10;;;9.30;;
59159;SDS011;44941;45.058;20.076;2022-11-20T03:29:09;16.33;;;9.88;;
59159;SDS011;44941;45.058;20.076;2022-11-20T03:31:36;16.63;;;10.05;;
59159;SDS011;44941;45.058;20.076;2022-11-20T03:34:02;17.83;;;10.57;;
59159;SDS011;44941;45.058;20.076;2022-11-20T03:36:29;14.95;;;9.95;;
59159;SDS011;44941;45.058;20.076;2022-11-20T03:38:55;19.45;;;10.20;;
59159;SDS011;44941;45.058;20.076;2022-11-20T03:41:27;15.50;;;9.93;;
59159;SDS011;44941;45.058;20.076;2022-11-20T03:43:58;17.92;;;10.00;;
59159;SDS011;44941;45.058;20.076;2022-11-20T03:46:24;15.60;;;9.75;;
59159;SDS011;44941;45.058;20.076;2022-11-20T03:48:51;17.48;;;9.88;;
59159;SDS011;44941;45.058;20.076;2022-11-20T03:51:19;16.08;;;10.10;;
59159;SDS011;44941;45.058;20.076;2022-11-20T03:53:46;14.48;;;10.00;;
59159;SDS011;44941;45.058;20.076;2022-11-20T03:56:12;16.95;;;9.90;;
59159;SDS011;44941;45.058;20.076;2022-11-20T03:58:39;16.15;;;9.90;;
59159;SDS011;44941;45.058;20.076;2022-11-20T04:01:06;17.85;;;10.27;;
59159;SDS011;44941;45.058;20.076;2022-11-20T04:03:33;17.88;;;10.52;;
59159;SDS011;44941;45.058;20.076;2022-11-20T04:06:06;16.45;;;9.77;;
59159;SDS011;44941;45.058;20.076;2022-11-20T04:08:33;18.80;;;9.13;;
59159;SDS011;44941;45.058;20.076;2022-11-20T04:11:12;18.15;;;10.13;;
59159;SDS011;44941;45.058;20.076;2022-11-20T04:13:38;16.23;;;9.75;;
59159;SDS011;44941;45.058;20.076;2022-11-20T04:16:05;16.77;;;9.23;;
59159;SDS011;44941;45.058;20.076;2022-11-20T04:18:31;15.98;;;9.52;;
59159;SDS011;44941;45.058;20.076;2022-11-20T04:20:58;15.32;;;9.38;;
59159;SDS011;44941;45.058;20.076;2022-11-20T04:23:24;15.02;;;9.18;;
59159;SDS011;44941;45.058;20.076;2022-11-20T04:25:51;13.80;;;8.80;;
59159;SDS011;44941;45.058;20.076;2022-11-20T04:28:17;13.88;;;8.05;;
59159;SDS011;44941;45.058;20.076;2022-11-20T04:30:43;14.05;;;8.48;;
59159;SDS011;44941;45.058;20.076;2022-11-20T04:33:09;13.15;;;7.68;;
59159;SDS011;44941;45.058;20.076;2022-11-20T04:35:36;13.55;;;7.85;;
59159;SDS011;44941;45.058;20.076;2022-11-20T04:38:02;12.75;;;7.57;;
59159;SDS011;44941;45.058;20.076;2022-11-20T04:40:28;11.93;;;6.78;;
59159;SDS011;44941;45.058;20.076;2022-11-20T04:42:54;13.93;;;7.85;;
59159;SDS011;44941;45.058;20.076;2022-11-20T04:45:21;12.48;;;7.63;;
59159;SDS011;44941;45.058;20.076;2022-11-20T04:47:48;12.25;;;7.05;;
59159;SDS011;44941;45.058;20.076;2022-11-20T04:50:14;11.77;;;6.30;;
59159;SDS011;44941;45.058;20.076;2022-11-20T04:52:40;11.15;;;6.57;;
59159;SDS011;44941;45.058;20.076;2022-11-20T04:55:06;11.45;;;6.53;;
59159;SDS011;44941;45.058;20.076;2022-11-20T04:57:32;10.77;;;6.28;;
59159;SDS011;44941;45.058;20.076;2022-11-20T04:59:58;9.60;;;6.03;;
59159;SDS011;44941;45.058;20.076;2022-11-20T05:02:24;10.60;;;6.38;;
59159;SDS011;44941;45.058;20.076;2022-11-20T05:04:50;11.40;;;6.47;;
59159;SDS011;44941;45.058;20.076;2022-11-20T05:07:16;12.00;;;6.60;;
59159;SDS011;44941;45.058;20.076;2022-11-20T05:09:43;10.50;;;5.68;;
59159;SDS011;44941;45.058;20.076;2022-11-20T05:12:09;16.75;;;7.25;;
59159;SDS011;44941;45.058;20.076;2022-11-20T05:14:35;15.85;;;8.07;;
59159;SDS011;44941;45.058;20.076;2022-11-20T05:17:01;16.85;;;8.45;;
59159;SDS011;44941;45.058;20.076;2022-11-20T05:19:27;14.95;;;8.43;;
59159;SDS011;44941;45.058;20.076;2022-11-20T05:21:53;10.15;;;6.03;;
59159;SDS011;44941;45.058;20.076;2022-11-20T05:24:19;9.35;;;5.10;;
59159;SDS011;44941;45.058;20.076;2022-11-20T05:26:45;8.95;;;5.20;;
59159;SDS011;44941;45.058;20.076;2022-11-20T05:29:11;10.65;;;5.60;;
59159;SDS011;44941;45.058;20.076;2022-11-20T05:31:38;11.00;;;5.90;;
59159;SDS011;44941;45.058;20.076;2022-11-20T05:34:05;11.55;;;5.95;;
59159;SDS011;44941;45.058;20.076;2022-11-20T05:36:31;9.80;;;5.90;;
59159;SDS011;44941;45.058;20.076;2022-11-20T05:38:57;10.35;;;5.82;;
59159;SDS011;44941;45.058;20.076;2022-11-20T05:41:23;9.95;;;5.00;;
59159;SDS011;44941;45.058;20.076;2022-11-20T05:43:49;9.02;;;5.47;;
59159;SDS011;44941;45.058;20.076;2022-11-20T05:46:17;8.60;;;5.32;;
59159;SDS011;44941;45.058;20.076;2022-11-20T05:48:43;11.13;;;6.45;;
59159;SDS011;44941;45.058;20.076;2022-11-20T05:51:11;14.43;;;8.10;;
59159;SDS011;44941;45.058;20.076;2022-11-20T05:53:38;15.30;;;8.73;;
59159;SDS011;44941;45.058;20.076;2022-11-20T05:56:05;14.10;;;7.97;;
59159;SDS011;44941;45.058;20.076;2022-11-20T05:58:32;10.95;;;7.10;;
59159;SDS011;44941;45.058;20.076;2022-11-20T06:01:05;13.13;;;7.40;;
59159;SDS011;44941;45.058;20.076;2022-11-20T06:03:31;13.10;;;7.45;;
59159;SDS011;44941;45.058;20.076;2022-11-20T06:05:58;12.00;;;7.90;;
59159;SDS011;44941;45.058;20.076;2022-11-20T06:08:24;14.10;;;8.18;;
59159;SDS011;44941;45.058;20.076;2022-11-20T06:10:50;16.27;;;9.93;;
59159;SDS011;44941;45.058;20.076;2022-11-20T06:13:16;13.50;;;8.27;;
59159;SDS011;44941;45.058;20.076;2022-11-20T06:15:47;14.90;;;9.13;;
59159;SDS011;44941;45.058;20.076;2022-11-20T06:18:14;14.43;;;9.05;;
59159;SDS011;44941;45.058;20.076;2022-11-20T06:20:40;15.35;;;8.85;;
59159;SDS011;44941;45.058;20.076;2022-11-20T06:23:06;13.43;;;8.82;;
59159;SDS011;44941;45.058;20.076;2022-11-20T06:25:32;15.65;;;8.90;;
59159;SDS011;44941;45.058;20.076;2022-11-20T06:27:58;15.13;;;8.60;;
59159;SDS011;44941;45.058;20.076;2022-11-20T06:30:24;16.02;;;9.07;;
59159;SDS011;44941;45.058;20.076;2022-11-20T06:32:50;14.48;;;8.45;;
59159;SDS011;44941;45.058;20.076;2022-11-20T06:35:16;14.40;;;8.98;;
59159;SDS011;44941;45.058;20.076;2022-11-20T06:37:42;15.25;;;9.05;;
59159;SDS011;44941;45.058;20.076;2022-11-20T06:40:08;15.15;;;8.90;;
59159;SDS011;44941;45.058;20.076;2022-11-20T06:42:35;15.85;;;9.90;;
59159;SDS011;44941;45.058;20.076;2022-11-20T06:45:01;16.08;;;9.52;;
59159;SDS011;44941;45.058;20.076;2022-11-20T06:47:27;14.80;;;9.30;;
59159;SDS011;44941;45.058;20.076;2022-11-20T06:49:53;16.73;;;9.30;;
59159;SDS011;44941;45.058;20.076;2022-11-20T06:52:19;14.45;;;8.80;;
59159;SDS011;44941;45.058;20.076;2022-11-20T06:54:45;16.55;;;9.98;;
59159;SDS011;44941;45.058;20.076;2022-11-20T06:57:11;17.23;;;10.00;;
59159;SDS011;44941;45.058;20.076;2022-11-20T06:59:37;16.25;;;9.73;;
59159;SDS011;44941;45.058;20.076;2022-11-20T07:02:03;15.90;;;9.57;;
59159;SDS011;44941;45.058;20.076;2022-11-20T07:04:29;16.52;;;10.00;;
59159;SDS011;44941;45.058;20.076;2022-11-20T07:06:55;19.20;;;9.88;;
59159;SDS011;44941;45.058;20.076;2022-11-20T07:09:21;15.55;;;9.77;;
59159;SDS011;44941;45.058;20.076;2022-11-20T07:11:47;16.08;;;9.27;;
59159;SDS011;44941;45.058;20.076;2022-11-20T07:14:13;16.35;;;10.52;;
59159;SDS011;44941;45.058;20.076;2022-11-20T07:16:39;16.98;;;11.05;;
59159;SDS011;44941;45.058;20.076;2022-11-20T07:19:05;17.83;;;10.07;;
59159;SDS011;44941;45.058;20.076;2022-11-20T07:21:31;16.95;;;10.20;;
59159;SDS011;44941;45.058;20.076;2022-11-20T07:23:58;15.13;;;9.35;;
59159;SDS011;44941;45.058;20.076;2022-11-20T07:26:24;15.95;;;8.93;;
59159;SDS011;44941;45.058;20.076;2022-11-20T07:28:50;18.40;;;10.50;;
59159;SDS011;44941;45.058;20.076;2022-11-20T07:31:16;16.42;;;9.70;;
59159;SDS011;44941;45.058;20.076;2022-11-20T07:33:42;17.40;;;10.32;;
59159;SDS011;44941;45.058;20.076;2022-11-20T07:36:08;20.83;;;9.27;;
59159;SDS011;44941;45.058;20.076;2022-11-20T07:38:37;14.75;;;9.10;;
59159;SDS011;44941;45.058;20.076;2022-11-20T07:41:03;14.23;;;8.85;;
59159;SDS011;44941;45.058;20.076;2022-11-20T07:43:30;16.40;;;9.93;;
59159;SDS011;44941;45.058;20.076;2022-11-20T07:45:56;16.70;;;10.23;;
59159;SDS011;44941;45.058;20.076;2022-11-20T07:48:23;14.43;;;9.15;;
59159;SDS011;44941;45.058;20.076;2022-11-20T07:50:49;17.20;;;9.57;;
59159;SDS011;44941;45.058;20.076;2022-11-20T07:53:15;15.27;;;9.48;;
59159;SDS011;44941;45.058;20.076;2022-11-20T07:55:45;11.90;;;8.10;;
59159;SDS011;44941;45.058;20.076;2022-11-20T07:58:11;15.38;;;9.43;;
59159;SDS011;44941;45.058;20.076;2022-11-20T08:00:39;15.27;;;8.98;;
59159;SDS011;44941;45.058;20.076;2022-11-20T08:03:05;15.63;;;9.57;;
59159;SDS011;44941;45.058;20.076;2022-11-20T08:05:31;15.60;;;9.32;;
59159;SDS011;44941;45.058;20.076;2022-11-20T08:07:57;16.13;;;9.20;;
59159;SDS011;44941;45.058;20.076;2022-11-20T08:10:23;17.80;;;10.77;;
59159;SDS011;44941;45.058;20.076;2022-11-20T08:12:50;19.48;;;11.60;;
59159;SDS011;44941;45.058;20.076;2022-11-20T08:15:35;19.80;;;11.70;;
59159;SDS011;44941;45.058;20.076;2022-11-20T08:18:04;19.05;;;11.00;;
59159;SDS011;44941;45.058;20.076;2022-11-20T08:20:30;21.45;;;12.93;;
59159;SDS011;44941;45.058;20.076;2022-11-20T08:22:59;18.93;;;12.00;;
59159;SDS011;44941;45.058;20.076;2022-11-20T08:25:26;16.70;;;9.27;;
59159;SDS011;44941;45.058;20.076;2022-11-20T08:27:52;15.25;;;8.95;;
59159;SDS011;44941;45.058;20.076;2022-11-20T08:30:18;12.80;;;7.55;;
59159;SDS011;44941;45.058;20.076;2022-11-20T08:32:44;12.48;;;7.97;;
59159;SDS011;44941;45.058;20.076;2022-11-20T08:35:10;12.32;;;8.07;;
59159;SDS011;44941;45.058;20.076;2022-11-20T08:37:36;16.20;;;9.45;;
59159;SDS011;44941;45.058;20.076;2022-11-20T08:40:07;14.93;;;9.27;;
59159;SDS011;44941;45.058;20.076;2022-11-20T08:42:33;15.80;;;9.33;;
59159;SDS011;44941;45.058;20.076;2022-11-20T08:44:59;16.90;;;10.13;;
59159;SDS011;44941;45.058;20.076;2022-11-20T08:47:26;16.27;;;9.98;;
59159;SDS011;44941;45.058;20.076;2022-11-20T08:49:52;18.20;;;10.48;;
59159;SDS011;44941;45.058;20.076;2022-11-20T08:52:18;16.90;;;9.82;;
59159;SDS011;44941;45.058;20.076;2022-11-20T08:54:51;17.80;;;11.25;;
59159;SDS011;44941;45.058;20.076;2022-11-20T08:57:17;20.08;;;12.32;;
59159;SDS011;44941;45.058;20.076;2022-11-20T08:59:43;19.85;;;11.68;;
59159;SDS011;44941;45.058;20.076;2022-11-20T09:02:09;20.27;;;12.20;;
59159;SDS011;44941;45.058;20.076;2022-11-20T09:04:35;18.73;;;10.93;;
59159;SDS011;44941;45.058;20.076;2022-11-20T09:07:01;18.02;;;11.35;;
59159;SDS011;44941;45.058;20.076;2022-11-20T09:09:27;23.17;;;13.10;;
59159;SDS011;44941;45.058;20.076;2022-11-20T09:11:53;21.25;;;12.32;;
59159;SDS011;44941;45.058;20.076;2022-11-20T09:14:19;20.60;;;12.60;;
59159;SDS011;44941;45.058;20.076;2022-11-20T09:16:46;21.58;;;12.63;;
59159;SDS011;44941;45.058;20.076;2022-11-20T09:19:12;21.08;;;12.10;;
59159;SDS011;44941;45.058;20.076;2022-11-20T09:21:38;17.98;;;11.60;;
59159;SDS011;44941;45.058;20.076;2022-11-20T09:24:04;22.55;;;12.70;;
59159;SDS011;44941;45.058;20.076;2022-11-20T09:26:31;21.20;;;12.30;;
59159;SDS011;44941;45.058;20.076;2022-11-20T09:28:57;19.50;;;12.07;;
59159;SDS011;44941;45.058;20.076;2022-11-20T09:31:23;17.25;;;10.45;;
59159;SDS011;44941;45.058;20.076;2022-11-20T09:33:50;17.20;;;9.65;;
59159;SDS011;44941;45.058;20.076;2022-11-20T09:36:16;17.67;;;10.25;;
59159;SDS011;44941;45.058;20.076;2022-11-20T09:38:44;16.10;;;9.95;;
59159;SDS011;44941;45.058;20.076;2022-11-20T09:46:52;14.23;;;7.95;;
59159;SDS011;44941;45.058;20.076;2022-11-20T09:51:59;15.98;;;9.15;;
59159;SDS011;44941;45.058;20.076;2022-11-20T09:54:33;19.63;;;8.45;;
59159;SDS011;44941;45.058;20.076;2022-11-20T09:57:05;13.18;;;8.02;;
59159;SDS011;44941;45.058;20.076;2022-11-20T10:02:11;14.10;;;8.40;;
59159;SDS011;44941;45.058;20.076;2022-11-20T10:04:38;13.85;;;7.95;;
59159;SDS011;44941;45.058;20.076;2022-11-20T10:07:13;16.40;;;8.18;;
59159;SDS011;44941;45.058;20.076;2022-11-20T10:09:49;12.07;;;7.30;;
59159;SDS011;44941;45.058;20.076;2022-11-20T10:14:52;13.75;;;8.02;;
59159;SDS011;44941;45.058;20.076;2022-11-20T10:17:38;13.90;;;8.35;;
59159;SDS011;44941;45.058;20.076;2022-11-20T10:20:17;13.00;;;7.28;;
59159;SDS011;44941;45.058;20.076;2022-11-20T10:25:13;13.93;;;7.57;;
59159;SDS011;44941;45.058;20.076;2022-11-20T10:30:11;12.52;;;7.60;;
59159;SDS011;44941;45.058;20.076;2022-11-20T10:32:38;13.13;;;8.05;;
59159;SDS011;44941;45.058;20.076;2022-11-20T10:37:33;18.13;;;9.73;;
59159;SDS011;44941;45.058;20.076;2022-11-20T10:40:03;16.20;;;9.45;;
59159;SDS011;44941;45.058;20.076;2022-11-20T10:42:34;18.55;;;10.70;;
59159;SDS011;44941;45.058;20.076;2022-11-20T10:47:45;15.55;;;10.07;;
59159;SDS011;44941;45.058;20.076;2022-11-20T10:50:14;18.85;;;11.20;;
59159;SDS011;44941;45.058;20.076;2022-11-20T10:52:55;19.83;;;12.40;;
59159;SDS011;44941;45.058;20.076;2022-11-20T11:00:20;19.27;;;11.48;;
59159;SDS011;44941;45.058;20.076;2022-11-20T11:05:16;17.95;;;10.23;;
59159;SDS011;44941;45.058;20.076;2022-11-20T11:07:43;29.23;;;14.82;;
59159;SDS011;44941;45.058;20.076;2022-11-20T11:12:55;21.40;;;11.63;;
59159;SDS011;44941;45.058;20.076;2022-11-20T11:15:26;21.60;;;11.70;;
59159;SDS011;44941;45.058;20.076;2022-11-20T11:17:52;18.77;;;11.38;;
59159;SDS011;44941;45.058;20.076;2022-11-20T11:20:20;17.40;;;10.18;;
59159;SDS011;44941;45.058;20.076;2022-11-20T11:22:48;19.77;;;12.07;;
59159;SDS011;44941;45.058;20.076;2022-11-20T11:25:22;18.15;;;10.88;;
59159;SDS011;44941;45.058;20.076;2022-11-20T11:27:48;19.73;;;12.05;;
59159;SDS011;44941;45.058;20.076;2022-11-20T11:30:16;21.95;;;12.98;;
59159;SDS011;44941;45.058;20.076;2022-11-20T11:32:42;21.35;;;12.57;;
59159;SDS011;44941;45.058;20.076;2022-11-20T11:35:25;23.52;;;13.23;;
59159;SDS011;44941;45.058;20.076;2022-11-20T11:37:53;27.42;;;13.60;;
59159;SDS011;44941;45.058;20.076;2022-11-20T11:40:33;23.13;;;13.10;;
59159;SDS011;44941;45.058;20.076;2022-11-20T11:43:01;22.13;;;13.07;;
59159;SDS011;44941;45.058;20.076;2022-11-20T11:45:28;21.90;;;13.85;;
59159;SDS011;44941;45.058;20.076;2022-11-20T11:47:55;21.50;;;12.75;;
59159;SDS011;44941;45.058;20.076;2022-11-20T12:00:54;24.58;;;14.18;;
59159;SDS011;44941;45.058;20.076;2022-11-20T12:03:39;24.95;;;13.10;;
59159;SDS011;44941;45.058;20.076;2022-11-20T12:06:16;22.48;;;12.90;;
59159;SDS011;44941;45.058;20.076;2022-11-20T12:08:44;23.48;;;13.25;;
59159;SDS011;44941;45.058;20.076;2022-11-20T12:13:53;25.50;;;13.30;;
59159;SDS011;44941;45.058;20.076;2022-11-20T12:16:20;26.60;;;14.05;;
59159;SDS011;44941;45.058;20.076;2022-11-20T12:18:50;24.15;;;13.40;;
59159;SDS011;44941;45.058;20.076;2022-11-20T12:26:33;24.42;;;14.20;;
59159;SDS011;44941;45.058;20.076;2022-11-20T12:29:13;25.65;;;14.55;;
59159;SDS011;44941;45.058;20.076;2022-11-20T12:39:49;28.23;;;14.82;;
59159;SDS011;44941;45.058;20.076;2022-11-20T12:45:22;23.77;;;14.30;;
59159;SDS011;44941;45.058;20.076;2022-11-20T12:50:38;23.25;;;14.02;;
59159;SDS011;44941;45.058;20.076;2022-11-20T13:00:50;24.33;;;13.82;;
59159;SDS011;44941;45.058;20.076;2022-11-20T13:03:37;24.45;;;14.68;;
59159;SDS011;44941;45.058;20.076;2022-11-20T13:06:07;23.35;;;13.50;;
59159;SDS011;44941;45.058;20.076;2022-11-20T13:08:36;22.83;;;12.95;;
59159;SDS011;44941;45.058;20.076;2022-11-20T13:16:36;22.75;;;13.20;;
59159;SDS011;44941;45.058;20.076;2022-11-20T13:19:03;25.58;;;14.05;;
59159;SDS011;44941;45.058;20.076;2022-11-20T13:21:40;23.27;;;13.05;;
59159;SDS011;44941;45.058;20.076;2022-11-20T13:26:32;20.90;;;13.05;;
59159;SDS011;44941;45.058;20.076;2022-11-20T13:29:09;24.13;;;13.68;;
59159;SDS011;44941;45.058;20.076;2022-11-20T13:31:37;27.90;;;15.48;;
59159;SDS011;44941;45.058;20.076;2022-11-20T13:34:05;30.50;;;16.98;;
59159;SDS011;44941;45.058;20.076;2022-11-20T13:36:32;32.42;;;18.20;;
59159;SDS011;44941;45.058;20.076;2022-11-20T13:39:00;26.27;;;15.70;;
59159;SDS011;44941;45.058;20.076;2022-11-20T13:41:27;27.55;;;16.42;;
59159;SDS011;44941;45.058;20.076;2022-11-20T13:44:04;27.40;;;16.20;;
59159;SDS011;44941;45.058;20.076;2022-11-20T13:49:06;56.75;;;28.58;;
59159;SDS011;44941;45.058;20.076;2022-11-20T13:57:05;21.13;;;12.23;;
59159;SDS011;44941;45.058;20.076;2022-11-20T14:02:18;27.15;;;14.30;;
59159;SDS011;44941;45.058;20.076;2022-11-20T14:04:47;26.23;;;13.57;;
59159;SDS011;44941;45.058;20.076;2022-11-20T14:07:14;20.77;;;11.93;;
59159;SDS011;44941;45.058;20.076;2022-11-20T14:09:49;22.48;;;13.05;;
59159;SDS011;44941;45.058;20.076;2022-11-20T14:12:16;24.83;;;12.98;;
59159;SDS011;44941;45.058;20.076;2022-11-20T14:14:47;20.25;;;11.98;;
59159;SDS011;44941;45.058;20.076;2022-11-20T14:17:34;21.50;;;13.13;;
59159;SDS011;44941;45.058;20.076;2022-11-20T14:20:02;20.33;;;12.23;;
59159;SDS011;44941;45.058;20.076;2022-11-20T14:22:30;20.77;;;11.60;;
59159;SDS011;44941;45.058;20.076;2022-11-20T14:25:06;21.60;;;12.70;;
59159;SDS011;44941;45.058;20.076;2022-11-20T14:27:59;21.20;;;12.88;;
59159;SDS011;44941;45.058;20.076;2022-11-20T14:30:27;22.35;;;12.30;;
59159;SDS011;44941;45.058;20.076;2022-11-20T14:32:54;21.90;;;13.25;;
59159;SDS011;44941;45.058;20.076;2022-11-20T14:35:25;20.60;;;12.38;;
59159;SDS011;44941;45.058;20.076;2022-11-20T14:37:52;19.38;;;11.60;;
59159;SDS011;44941;45.058;20.076;2022-11-20T14:40:29;23.13;;;13.38;;
59159;SDS011;44941;45.058;20.076;2022-11-20T14:42:56;22.52;;;13.27;;
59159;SDS011;44941;45.058;20.076;2022-11-20T14:45:22;27.17;;;14.93;;
59159;SDS011;44941;45.058;20.076;2022-11-20T14:47:50;22.80;;;13.25;;
59159;SDS011;44941;45.058;20.076;2022-11-20T14:50:22;27.05;;;15.18;;
59159;SDS011;44941;45.058;20.076;2022-11-20T14:52:58;25.23;;;15.10;;
59159;SDS011;44941;45.058;20.076;2022-11-20T14:55:29;24.70;;;14.57;;
59159;SDS011;44941;45.058;20.076;2022-11-20T14:57:56;25.67;;;14.82;;
59159;SDS011;44941;45.058;20.076;2022-11-20T15:00:23;22.98;;;14.10;;
59159;SDS011;44941;45.058;20.076;2022-11-20T15:02:50;38.22;;;17.27;;
59159;SDS011;44941;45.058;20.076;2022-11-20T15:05:17;41.08;;;15.60;;
59159;SDS011;44941;45.058;20.076;2022-11-20T15:07:45;29.85;;;15.10;;
59159;SDS011;44941;45.058;20.076;2022-11-20T15:10:13;25.00;;;14.95;;
59159;SDS011;44941;45.058;20.076;2022-11-20T15:12:53;24.80;;;14.37;;
59159;SDS011;44941;45.058;20.076;2022-11-20T15:18:05;22.23;;;13.98;;
59159;SDS011;44941;45.058;20.076;2022-11-20T15:20:36;25.13;;;14.00;;
59159;SDS011;44941;45.058;20.076;2022-11-20T15:23:07;25.63;;;14.23;;
59159;SDS011;44941;45.058;20.076;2022-11-20T15:25:34;26.17;;;14.23;;
59159;SDS011;44941;45.058;20.076;2022-11-20T15:28:00;26.50;;;14.85;;
59159;SDS011;44941;45.058;20.076;2022-11-20T15:30:27;26.65;;;14.20;;
59159;SDS011;44941;45.058;20.076;2022-11-20T15:32:53;24.13;;;13.40;;
59159;SDS011;44941;45.058;20.076;2022-11-20T15:35:19;23.70;;;12.35;;
59159;SDS011;44941;45.058;20.076;2022-11-20T15:37:45;21.45;;;11.73;;
59159;SDS011;44941;45.058;20.076;2022-11-20T15:40:11;19.05;;;10.98;;
59159;SDS011;44941;45.058;20.076;2022-11-20T15:42:39;19.38;;;11.48;;
59159;SDS011;44941;45.058;20.076;2022-11-20T15:45:25;21.50;;;11.60;;
59159;SDS011;44941;45.058;20.076;2022-11-20T15:47:51;21.25;;;11.27;;
59159;SDS011;44941;45.058;20.076;2022-11-20T15:50:17;21.52;;;12.23;;
59159;SDS011;44941;45.058;20.076;2022-11-20T15:52:43;19.73;;;11.20;;
59159;SDS011;44941;45.058;20.076;2022-11-20T15:55:10;29.40;;;16.63;;
59159;SDS011;44941;45.058;20.076;2022-11-20T15:57:39;27.25;;;14.25;;
59159;SDS011;44941;45.058;20.076;2022-11-20T16:00:05;25.17;;;14.52;;
59159;SDS011;44941;45.058;20.076;2022-11-20T16:02:31;23.45;;;13.90;;
59159;SDS011;44941;45.058;20.076;2022-11-20T16:04:58;25.15;;;14.32;;